Lantrip, Mississippi
Current Conditions -  °F | °C
As of 3:15 PM on Sunday 23 Nov 2014 (Local Time) from KUOX Reporting Station
Haze Haze  
Wind Chill: 59°   Ceiling: 100
Heat Index: 59°   Visibility: 0.75mi
Dew Point: 57°   Wind: 10mph
Humidity: 94%   Direction: 200°SSW
Pressure: 29.34"   Gusts: 25mph
Location:  34.0213°N, 89.3777°W
Report Text: KUOX 232115Z AUTO 20009G22KT 020V020 3/4SM BR BKN001 OVC012 15/14 A2934 RMK AO2 PWINO PNO
Loading
Personal Weather Stations






























Interactive Weather Map New forecast layout! Learn more

10-Day Weather Forecast

Advertisements
Track Severe Weather on mobile